sensor_id;sensor_type;location;lat;lon;timestamp;P1;durP1;ratioP1;P2;durP2;ratioP2
20832;SDS011;56075;51.264;7.150;2022-10-31T00:00:16;10.77;;;4.18;;
20832;SDS011;56075;51.264;7.150;2022-10-31T00:02:48;14.18;;;3.65;;
20832;SDS011;56075;51.264;7.150;2022-10-31T00:05:19;10.32;;;4.10;;
20832;SDS011;56075;51.264;7.150;2022-10-31T00:07:52;10.50;;;4.30;;
20832;SDS011;56075;51.264;7.150;2022-10-31T00:10:23;11.18;;;4.30;;
20832;SDS011;56075;51.264;7.150;2022-10-31T00:12:55;12.32;;;4.65;;
20832;SDS011;56075;51.264;7.150;2022-10-31T00:15:26;16.67;;;4.90;;
20832;SDS011;56075;51.264;7.150;2022-10-31T00:17:58;12.63;;;5.20;;
20832;SDS011;56075;51.264;7.150;2022-10-31T00:20:29;11.00;;;5.13;;
20832;SDS011;56075;51.264;7.150;2022-10-31T00:23:01;13.85;;;5.43;;
20832;SDS011;56075;51.264;7.150;2022-10-31T00:25:34;13.13;;;5.50;;
20832;SDS011;56075;51.264;7.150;2022-10-31T00:28:07;15.48;;;5.35;;
20832;SDS011;56075;51.264;7.150;2022-10-31T00:30:41;13.88;;;5.72;;
20832;SDS011;56075;51.264;7.150;2022-10-31T00:33:12;11.43;;;4.35;;
20832;SDS011;56075;51.264;7.150;2022-10-31T00:35:48;8.65;;;4.13;;
20832;SDS011;56075;51.264;7.150;2022-10-31T00:38:21;9.20;;;4.65;;
20832;SDS011;56075;51.264;7.150;2022-10-31T00:40:52;12.45;;;4.55;;
20832;SDS011;56075;51.264;7.150;2022-10-31T00:43:23;16.08;;;5.80;;
20832;SDS011;56075;51.264;7.150;2022-10-31T00:45:55;11.98;;;4.97;;
20832;SDS011;56075;51.264;7.150;2022-10-31T00:48:29;13.32;;;4.75;;
20832;SDS011;56075;51.264;7.150;2022-10-31T00:51:00;13.15;;;5.10;;
20832;SDS011;56075;51.264;7.150;2022-10-31T00:53:32;11.55;;;4.57;;
20832;SDS011;56075;51.264;7.150;2022-10-31T00:56:03;18.55;;;5.60;;
20832;SDS011;56075;51.264;7.150;2022-10-31T00:58:35;16.58;;;5.60;;
20832;SDS011;56075;51.264;7.150;2022-10-31T01:01:06;13.50;;;4.72;;
20832;SDS011;56075;51.264;7.150;2022-10-31T01:03:39;15.15;;;4.93;;
20832;SDS011;56075;51.264;7.150;2022-10-31T01:06:14;14.25;;;5.20;;
20832;SDS011;56075;51.264;7.150;2022-10-31T01:08:46;13.40;;;4.82;;
20832;SDS011;56075;51.264;7.150;2022-10-31T01:11:19;11.27;;;4.70;;
20832;SDS011;56075;51.264;7.150;2022-10-31T01:13:53;16.80;;;5.50;;
20832;SDS011;56075;51.264;7.150;2022-10-31T01:16:25;11.65;;;5.25;;
20832;SDS011;56075;51.264;7.150;2022-10-31T01:19:01;13.68;;;5.63;;
20832;SDS011;56075;51.264;7.150;2022-10-31T01:21:32;14.52;;;5.28;;
20832;SDS011;56075;51.264;7.150;2022-10-31T01:24:04;12.43;;;5.10;;
20832;SDS011;56075;51.264;7.150;2022-10-31T01:26:35;12.77;;;5.35;;
20832;SDS011;56075;51.264;7.150;2022-10-31T01:29:07;10.77;;;5.07;;
20832;SDS011;56075;51.264;7.150;2022-10-31T01:31:39;12.55;;;5.78;;
20832;SDS011;56075;51.264;7.150;2022-10-31T01:34:14;13.57;;;5.32;;
20832;SDS011;56075;51.264;7.150;2022-10-31T01:36:47;15.25;;;4.88;;
20832;SDS011;56075;51.264;7.150;2022-10-31T01:39:21;13.80;;;5.47;;
20832;SDS011;56075;51.264;7.150;2022-10-31T01:41:53;13.85;;;5.85;;
20832;SDS011;56075;51.264;7.150;2022-10-31T01:47:01;13.98;;;5.10;;
20832;SDS011;56075;51.264;7.150;2022-10-31T01:49:46;13.73;;;5.35;;
20832;SDS011;56075;51.264;7.150;2022-10-31T01:52:30;10.85;;;4.22;;
20832;SDS011;56075;51.264;7.150;2022-10-31T01:55:21;13.40;;;5.18;;
20832;SDS011;56075;51.264;7.150;2022-10-31T01:58:04;10.10;;;3.58;;
20832;SDS011;56075;51.264;7.150;2022-10-31T02:00:39;11.73;;;4.65;;
20832;SDS011;56075;51.264;7.150;2022-10-31T02:03:13;14.50;;;4.80;;
20832;SDS011;56075;51.264;7.150;2022-10-31T02:05:45;12.50;;;3.97;;
20832;SDS011;56075;51.264;7.150;2022-10-31T02:08:26;16.42;;;5.00;;
20832;SDS011;56075;51.264;7.150;2022-10-31T02:10:59;15.65;;;4.82;;
20832;SDS011;56075;51.264;7.150;2022-10-31T02:13:32;15.20;;;5.20;;
20832;SDS011;56075;51.264;7.150;2022-10-31T02:16:05;14.00;;;4.88;;
20832;SDS011;56075;51.264;7.150;2022-10-31T02:18:37;12.02;;;5.57;;
20832;SDS011;56075;51.264;7.150;2022-10-31T02:21:15;11.38;;;4.50;;
20832;SDS011;56075;51.264;7.150;2022-10-31T02:23:56;13.15;;;4.47;;
20832;SDS011;56075;51.264;7.150;2022-10-31T02:26:54;13.20;;;4.65;;
20832;SDS011;56075;51.264;7.150;2022-10-31T02:30:09;12.20;;;4.63;;
20832;SDS011;56075;51.264;7.150;2022-10-31T02:41:37;13.68;;;4.95;;
20832;SDS011;56075;51.264;7.150;2022-10-31T02:44:29;14.02;;;4.68;;
20832;SDS011;56075;51.264;7.150;2022-10-31T02:52:27;14.90;;;4.47;;
20832;SDS011;56075;51.264;7.150;2022-10-31T02:57:58;12.27;;;4.78;;
20832;SDS011;56075;51.264;7.150;2022-10-31T03:00:37;16.20;;;5.10;;
20832;SDS011;56075;51.264;7.150;2022-10-31T03:03:33;13.32;;;4.72;;
20832;SDS011;56075;51.264;7.150;2022-10-31T03:11:58;17.42;;;5.07;;
20832;SDS011;56075;51.264;7.150;2022-10-31T03:20:54;14.65;;;4.75;;
20832;SDS011;56075;51.264;7.150;2022-10-31T03:23:32;13.23;;;4.95;;
20832;SDS011;56075;51.264;7.150;2022-10-31T03:26:06;14.85;;;4.97;;
20832;SDS011;56075;51.264;7.150;2022-10-31T03:28:49;15.70;;;5.10;;
20832;SDS011;56075;51.264;7.150;2022-10-31T03:31:32;18.05;;;5.35;;
20832;SDS011;56075;51.264;7.150;2022-10-31T03:34:10;12.65;;;5.38;;
20832;SDS011;56075;51.264;7.150;2022-10-31T03:36:43;12.90;;;5.22;;
20832;SDS011;56075;51.264;7.150;2022-10-31T03:39:17;15.20;;;5.10;;
20832;SDS011;56075;51.264;7.150;2022-10-31T03:41:54;14.80;;;4.68;;
20832;SDS011;56075;51.264;7.150;2022-10-31T03:44:32;10.15;;;4.35;;
20832;SDS011;56075;51.264;7.150;2022-10-31T03:47:06;12.05;;;4.80;;
20832;SDS011;56075;51.264;7.150;2022-10-31T03:49:38;14.00;;;5.13;;
20832;SDS011;56075;51.264;7.150;2022-10-31T03:54:52;15.32;;;5.63;;
20832;SDS011;56075;51.264;7.150;2022-10-31T03:57:39;11.20;;;4.68;;
20832;SDS011;56075;51.264;7.150;2022-10-31T04:00:18;13.90;;;5.45;;
20832;SDS011;56075;51.264;7.150;2022-10-31T04:02:55;13.10;;;5.00;;
20832;SDS011;56075;51.264;7.150;2022-10-31T04:05:34;11.55;;;4.20;;
20832;SDS011;56075;51.264;7.150;2022-10-31T04:08:08;13.00;;;4.50;;
20832;SDS011;56075;51.264;7.150;2022-10-31T04:10:43;12.80;;;4.68;;
20832;SDS011;56075;51.264;7.150;2022-10-31T04:13:19;12.45;;;4.72;;
20832;SDS011;56075;51.264;7.150;2022-10-31T04:16:03;12.95;;;5.30;;
20832;SDS011;56075;51.264;7.150;2022-10-31T04:18:36;18.77;;;5.65;;
20832;SDS011;56075;51.264;7.150;2022-10-31T04:21:07;11.35;;;5.03;;
20832;SDS011;56075;51.264;7.150;2022-10-31T04:23:38;11.15;;;4.80;;
20832;SDS011;56075;51.264;7.150;2022-10-31T04:26:20;12.57;;;4.72;;
20832;SDS011;56075;51.264;7.150;2022-10-31T04:28:52;12.93;;;5.25;;
20832;SDS011;56075;51.264;7.150;2022-10-31T04:31:23;13.32;;;5.03;;
20832;SDS011;56075;51.264;7.150;2022-10-31T04:33:54;16.85;;;5.80;;
20832;SDS011;56075;51.264;7.150;2022-10-31T04:36:26;14.00;;;5.38;;
20832;SDS011;56075;51.264;7.150;2022-10-31T04:38:57;14.23;;;5.45;;
20832;SDS011;56075;51.264;7.150;2022-10-31T04:41:49;12.75;;;5.10;;
20832;SDS011;56075;51.264;7.150;2022-10-31T04:44:20;17.17;;;5.15;;
20832;SDS011;56075;51.264;7.150;2022-10-31T04:46:55;15.50;;;4.88;;
20832;SDS011;56075;51.264;7.150;2022-10-31T04:49:27;13.82;;;5.30;;
20832;SDS011;56075;51.264;7.150;2022-10-31T04:51:58;15.38;;;5.47;;
20832;SDS011;56075;51.264;7.150;2022-10-31T04:54:29;12.82;;;5.57;;
20832;SDS011;56075;51.264;7.150;2022-10-31T04:57:18;19.83;;;6.35;;
20832;SDS011;56075;51.264;7.150;2022-10-31T04:59:50;17.13;;;6.40;;
20832;SDS011;56075;51.264;7.150;2022-10-31T05:02:21;18.27;;;5.85;;
20832;SDS011;56075;51.264;7.150;2022-10-31T05:04:59;14.88;;;5.18;;
20832;SDS011;56075;51.264;7.150;2022-10-31T05:07:30;13.80;;;5.22;;
20832;SDS011;56075;51.264;7.150;2022-10-31T05:10:03;17.92;;;6.15;;
20832;SDS011;56075;51.264;7.150;2022-10-31T05:12:35;20.92;;;6.07;;
20832;SDS011;56075;51.264;7.150;2022-10-31T05:15:12;13.40;;;5.63;;
20832;SDS011;56075;51.264;7.150;2022-10-31T05:18:02;19.30;;;6.35;;
20832;SDS011;56075;51.264;7.150;2022-10-31T05:20:53;12.93;;;6.47;;
20832;SDS011;56075;51.264;7.150;2022-10-31T05:23:51;16.73;;;6.53;;
20832;SDS011;56075;51.264;7.150;2022-10-31T05:26:24;20.35;;;6.53;;
20832;SDS011;56075;51.264;7.150;2022-10-31T05:28:57;16.77;;;6.45;;
20832;SDS011;56075;51.264;7.150;2022-10-31T05:31:28;16.92;;;7.13;;
20832;SDS011;56075;51.264;7.150;2022-10-31T05:34:00;13.93;;;6.45;;
20832;SDS011;56075;51.264;7.150;2022-10-31T05:36:49;13.85;;;5.38;;
20832;SDS011;56075;51.264;7.150;2022-10-31T05:39:21;14.52;;;6.95;;
20832;SDS011;56075;51.264;7.150;2022-10-31T05:41:58;17.42;;;6.57;;
20832;SDS011;56075;51.264;7.150;2022-10-31T05:44:31;17.60;;;7.22;;
20832;SDS011;56075;51.264;7.150;2022-10-31T05:47:20;17.48;;;6.75;;
20832;SDS011;56075;51.264;7.150;2022-10-31T05:50:00;17.33;;;6.05;;
20832;SDS011;56075;51.264;7.150;2022-10-31T05:52:55;18.35;;;6.97;;
20832;SDS011;56075;51.264;7.150;2022-10-31T05:55:36;16.85;;;7.28;;
20832;SDS011;56075;51.264;7.150;2022-10-31T05:58:12;16.58;;;6.32;;
20832;SDS011;56075;51.264;7.150;2022-10-31T06:00:47;23.08;;;7.47;;
20832;SDS011;56075;51.264;7.150;2022-10-31T06:03:20;19.95;;;7.90;;
20832;SDS011;56075;51.264;7.150;2022-10-31T06:05:57;18.33;;;6.32;;
20832;SDS011;56075;51.264;7.150;2022-10-31T06:08:39;21.65;;;7.20;;
20832;SDS011;56075;51.264;7.150;2022-10-31T06:11:17;20.77;;;6.97;;
20832;SDS011;56075;51.264;7.150;2022-10-31T06:14:06;16.77;;;6.35;;
20832;SDS011;56075;51.264;7.150;2022-10-31T06:16:49;19.90;;;8.27;;
20832;SDS011;56075;51.264;7.150;2022-10-31T06:19:43;19.30;;;6.25;;
20832;SDS011;56075;51.264;7.150;2022-10-31T06:22:16;20.55;;;7.95;;
20832;SDS011;56075;51.264;7.150;2022-10-31T06:24:48;19.17;;;7.07;;
20832;SDS011;56075;51.264;7.150;2022-10-31T06:27:48;21.48;;;8.30;;
20832;SDS011;56075;51.264;7.150;2022-10-31T06:30:19;19.98;;;8.15;;
20832;SDS011;56075;51.264;7.150;2022-10-31T06:32:51;21.77;;;8.30;;
20832;SDS011;56075;51.264;7.150;2022-10-31T06:35:24;21.20;;;8.30;;
20832;SDS011;56075;51.264;7.150;2022-10-31T06:37:56;21.00;;;8.70;;
20832;SDS011;56075;51.264;7.150;2022-10-31T06:40:37;25.55;;;8.70;;
20832;SDS011;56075;51.264;7.150;2022-10-31T06:43:27;19.67;;;8.68;;
20832;SDS011;56075;51.264;7.150;2022-10-31T06:46:21;22.05;;;7.63;;
20832;SDS011;56075;51.264;7.150;2022-10-31T06:49:05;18.27;;;7.28;;
20832;SDS011;56075;51.264;7.150;2022-10-31T06:51:51;20.20;;;8.82;;
20832;SDS011;56075;51.264;7.150;2022-10-31T06:54:22;18.42;;;7.55;;
20832;SDS011;56075;51.264;7.150;2022-10-31T06:56:53;20.48;;;8.40;;
20832;SDS011;56075;51.264;7.150;2022-10-31T06:59:25;20.20;;;8.30;;
20832;SDS011;56075;51.264;7.150;2022-10-31T07:02:16;15.00;;;6.65;;
20832;SDS011;56075;51.264;7.150;2022-10-31T07:04:47;22.92;;;8.70;;
20832;SDS011;56075;51.264;7.150;2022-10-31T07:07:21;20.67;;;8.73;;
20832;SDS011;56075;51.264;7.150;2022-10-31T07:09:52;18.80;;;8.18;;
20832;SDS011;56075;51.264;7.150;2022-10-31T07:12:31;27.63;;;9.77;;
20832;SDS011;56075;51.264;7.150;2022-10-31T07:15:03;22.77;;;9.27;;
20832;SDS011;56075;51.264;7.150;2022-10-31T07:17:35;25.33;;;9.70;;
20832;SDS011;56075;51.264;7.150;2022-10-31T07:20:06;21.15;;;9.15;;
20832;SDS011;56075;51.264;7.150;2022-10-31T07:22:38;25.13;;;8.73;;
20832;SDS011;56075;51.264;7.150;2022-10-31T07:25:12;23.98;;;8.88;;
20832;SDS011;56075;51.264;7.150;2022-10-31T07:28:01;24.90;;;8.15;;
20832;SDS011;56075;51.264;7.150;2022-10-31T07:30:32;22.50;;;8.85;;
20832;SDS011;56075;51.264;7.150;2022-10-31T07:33:04;21.52;;;8.10;;
20832;SDS011;56075;51.264;7.150;2022-10-31T07:35:56;24.65;;;9.38;;
20832;SDS011;56075;51.264;7.150;2022-10-31T07:38:32;22.40;;;9.10;;
20832;SDS011;56075;51.264;7.150;2022-10-31T07:41:07;29.02;;;9.10;;
20832;SDS011;56075;51.264;7.150;2022-10-31T07:43:43;22.15;;;8.48;;
20832;SDS011;56075;51.264;7.150;2022-10-31T07:46:21;16.90;;;7.72;;
20832;SDS011;56075;51.264;7.150;2022-10-31T07:49:11;24.70;;;9.68;;
20832;SDS011;56075;51.264;7.150;2022-10-31T07:52:17;21.67;;;9.10;;
20832;SDS011;56075;51.264;7.150;2022-10-31T07:55:07;24.58;;;10.18;;
20832;SDS011;56075;51.264;7.150;2022-10-31T07:57:40;27.38;;;10.40;;
20832;SDS011;56075;51.264;7.150;2022-10-31T08:00:11;30.92;;;10.60;;
20832;SDS011;56075;51.264;7.150;2022-10-31T08:02:45;27.27;;;10.40;;
20832;SDS011;56075;51.264;7.150;2022-10-31T08:05:35;26.63;;;11.60;;
20832;SDS011;56075;51.264;7.150;2022-10-31T08:08:42;25.67;;;11.15;;
20832;SDS011;56075;51.264;7.150;2022-10-31T08:11:14;27.70;;;11.43;;
20832;SDS011;56075;51.264;7.150;2022-10-31T08:13:47;28.50;;;10.60;;
20832;SDS011;56075;51.264;7.150;2022-10-31T08:16:19;25.58;;;10.15;;
20832;SDS011;56075;51.264;7.150;2022-10-31T08:18:57;29.42;;;10.75;;
20832;SDS011;56075;51.264;7.150;2022-10-31T08:21:29;26.00;;;10.65;;
20832;SDS011;56075;51.264;7.150;2022-10-31T08:24:01;28.38;;;12.05;;
20832;SDS011;56075;51.264;7.150;2022-10-31T08:26:33;31.10;;;12.10;;
20832;SDS011;56075;51.264;7.150;2022-10-31T08:29:04;32.20;;;12.98;;
20832;SDS011;56075;51.264;7.150;2022-10-31T08:31:38;29.52;;;12.43;;
20832;SDS011;56075;51.264;7.150;2022-10-31T08:34:35;33.10;;;12.80;;
20832;SDS011;56075;51.264;7.150;2022-10-31T08:37:25;31.80;;;12.70;;
20832;SDS011;56075;51.264;7.150;2022-10-31T08:39:58;28.15;;;11.82;;
20832;SDS011;56075;51.264;7.150;2022-10-31T08:42:30;34.05;;;12.45;;
20832;SDS011;56075;51.264;7.150;2022-10-31T08:45:02;32.50;;;12.93;;
20832;SDS011;56075;51.264;7.150;2022-10-31T08:47:35;24.02;;;9.93;;
20832;SDS011;56075;51.264;7.150;2022-10-31T08:50:07;29.52;;;11.15;;
20832;SDS011;56075;51.264;7.150;2022-10-31T08:52:39;25.55;;;10.32;;
20832;SDS011;56075;51.264;7.150;2022-10-31T08:55:10;36.15;;;12.30;;
20832;SDS011;56075;51.264;7.150;2022-10-31T08:58:00;30.25;;;11.77;;
20832;SDS011;56075;51.264;7.150;2022-10-31T09:00:41;33.42;;;13.15;;
20832;SDS011;56075;51.264;7.150;2022-10-31T09:03:20;32.92;;;12.52;;
20832;SDS011;56075;51.264;7.150;2022-10-31T09:05:57;37.08;;;13.00;;
20832;SDS011;56075;51.264;7.150;2022-10-31T09:08:32;36.80;;;12.88;;
20832;SDS011;56075;51.264;7.150;2022-10-31T09:11:04;36.63;;;13.20;;
20832;SDS011;56075;51.264;7.150;2022-10-31T09:13:55;34.65;;;13.55;;
20832;SDS011;56075;51.264;7.150;2022-10-31T09:16:44;42.50;;;15.40;;
20832;SDS011;56075;51.264;7.150;2022-10-31T09:19:25;37.00;;;13.18;;
20832;SDS011;56075;51.264;7.150;2022-10-31T09:21:56;32.80;;;13.20;;
20832;SDS011;56075;51.264;7.150;2022-10-31T09:24:28;29.90;;;11.60;;
20832;SDS011;56075;51.264;7.150;2022-10-31T09:26:59;34.85;;;13.07;;
20832;SDS011;56075;51.264;7.150;2022-10-31T09:29:31;26.40;;;11.45;;
20832;SDS011;56075;51.264;7.150;2022-10-31T09:32:04;32.45;;;11.23;;
20832;SDS011;56075;51.264;7.150;2022-10-31T09:34:41;32.80;;;12.65;;
20832;SDS011;56075;51.264;7.150;2022-10-31T09:37:15;39.47;;;13.07;;
20832;SDS011;56075;51.264;7.150;2022-10-31T09:39:46;30.83;;;12.88;;
20832;SDS011;56075;51.264;7.150;2022-10-31T09:42:46;26.88;;;12.45;;
20832;SDS011;56075;51.264;7.150;2022-10-31T09:45:31;28.77;;;11.57;;
20832;SDS011;56075;51.264;7.150;2022-10-31T09:51:19;27.48;;;10.80;;
20832;SDS011;56075;51.264;7.150;2022-10-31T09:54:15;31.55;;;12.02;;
20832;SDS011;56075;51.264;7.150;2022-10-31T09:56:50;31.33;;;12.57;;
20832;SDS011;56075;51.264;7.150;2022-10-31T09:59:28;32.80;;;13.02;;
20832;SDS011;56075;51.264;7.150;2022-10-31T10:02:51;33.95;;;13.50;;
20832;SDS011;56075;51.264;7.150;2022-10-31T10:05:17;33.38;;;12.45;;
20832;SDS011;56075;51.264;7.150;2022-10-31T10:16:55;35.38;;;15.70;;
20832;SDS011;56075;51.264;7.150;2022-10-31T10:37:00;22.13;;;7.93;;
20832;SDS011;56075;51.264;7.150;2022-10-31T10:39:40;20.25;;;7.75;;
20832;SDS011;56075;51.264;7.150;2022-10-31T10:42:15;18.17;;;8.18;;
20832;SDS011;56075;51.264;7.150;2022-10-31T10:45:18;18.08;;;7.85;;
20832;SDS011;56075;51.264;7.150;2022-10-31T10:48:16;15.20;;;5.80;;
20832;SDS011;56075;51.264;7.150;2022-10-31T10:51:02;15.82;;;6.45;;
20832;SDS011;56075;51.264;7.150;2022-10-31T10:53:39;16.17;;;6.32;;
20832;SDS011;56075;51.264;7.150;2022-10-31T10:56:38;21.27;;;7.05;;
20832;SDS011;56075;51.264;7.150;2022-10-31T10:59:20;18.00;;;6.30;;
20832;SDS011;56075;51.264;7.150;2022-10-31T11:01:52;15.20;;;5.95;;
20832;SDS011;56075;51.264;7.150;2022-10-31T11:04:25;16.17;;;5.22;;
20832;SDS011;56075;51.264;7.150;2022-10-31T11:07:03;15.05;;;5.65;;
20832;SDS011;56075;51.264;7.150;2022-10-31T11:09:39;13.93;;;5.18;;
20832;SDS011;56075;51.264;7.150;2022-10-31T11:12:20;12.68;;;5.45;;
20832;SDS011;56075;51.264;7.150;2022-10-31T11:14:56;10.27;;;4.20;;
20832;SDS011;56075;51.264;7.150;2022-10-31T11:17:33;17.40;;;4.70;;
20832;SDS011;56075;51.264;7.150;2022-10-31T11:22:45;15.18;;;4.40;;
20832;SDS011;56075;51.264;7.150;2022-10-31T11:28:02;10.65;;;3.88;;
20832;SDS011;56075;51.264;7.150;2022-10-31T11:30:36;14.38;;;5.55;;
20832;SDS011;56075;51.264;7.150;2022-10-31T11:36:03;11.95;;;4.30;;
20832;SDS011;56075;51.264;7.150;2022-10-31T11:39:02;14.05;;;4.40;;
20832;SDS011;56075;51.264;7.150;2022-10-31T11:41:35;10.60;;;3.30;;
20832;SDS011;56075;51.264;7.150;2022-10-31T11:44:30;12.25;;;3.38;;
20832;SDS011;56075;51.264;7.150;2022-10-31T11:47:03;9.90;;;3.35;;
20832;SDS011;56075;51.264;7.150;2022-10-31T11:49:37;12.50;;;3.80;;
20832;SDS011;56075;51.264;7.150;2022-10-31T11:52:15;11.10;;;3.63;;
20832;SDS011;56075;51.264;7.150;2022-10-31T11:54:55;12.52;;;3.60;;
20832;SDS011;56075;51.264;7.150;2022-10-31T11:57:31;12.35;;;3.60;;
20832;SDS011;56075;51.264;7.150;2022-10-31T12:00:05;11.95;;;3.50;;
20832;SDS011;56075;51.264;7.150;2022-10-31T12:02:50;10.85;;;3.20;;
20832;SDS011;56075;51.264;7.150;2022-10-31T12:05:34;10.05;;;3.15;;
20832;SDS011;56075;51.264;7.150;2022-10-31T12:08:07;8.75;;;3.00;;
20832;SDS011;56075;51.264;7.150;2022-10-31T12:10:55;10.27;;;3.10;;
20832;SDS011;56075;51.264;7.150;2022-10-31T12:13:55;8.32;;;3.30;;
20832;SDS011;56075;51.264;7.150;2022-10-31T12:22:42;9.07;;;3.15;;
20832;SDS011;56075;51.264;7.150;2022-10-31T12:25:21;11.35;;;3.08;;
20832;SDS011;56075;51.264;7.150;2022-10-31T12:31:03;11.27;;;3.00;;
20832;SDS011;56075;51.264;7.150;2022-10-31T12:33:59;10.68;;;3.63;;
20832;SDS011;56075;51.264;7.150;2022-10-31T12:45:51;11.77;;;2.72;;
20832;SDS011;56075;51.264;7.150;2022-10-31T12:54:16;12.63;;;3.55;;
20832;SDS011;56075;51.264;7.150;2022-10-31T12:56:55;9.13;;;3.17;;
20832;SDS011;56075;51.264;7.150;2022-10-31T12:59:42;11.70;;;3.42;;
20832;SDS011;56075;51.264;7.150;2022-10-31T13:02:27;11.85;;;3.25;;
20832;SDS011;56075;51.264;7.150;2022-10-31T13:05:12;10.98;;;3.40;;
20832;SDS011;56075;51.264;7.150;2022-10-31T13:07:47;9.57;;;3.13;;
20832;SDS011;56075;51.264;7.150;2022-10-31T13:13:16;8.82;;;2.70;;
20832;SDS011;56075;51.264;7.150;2022-10-31T13:15:58;7.97;;;2.70;;
20832;SDS011;56075;51.264;7.150;2022-10-31T13:21:51;11.38;;;3.05;;
20832;SDS011;56075;51.264;7.150;2022-10-31T13:24:33;11.55;;;3.65;;
20832;SDS011;56075;51.264;7.150;2022-10-31T13:27:24;7.57;;;3.15;;
20832;SDS011;56075;51.264;7.150;2022-10-31T13:30:01;13.45;;;3.30;;
20832;SDS011;56075;51.264;7.150;2022-10-31T13:32:44;10.40;;;3.47;;
20832;SDS011;56075;51.264;7.150;2022-10-31T13:35:23;9.07;;;3.03;;
20832;SDS011;56075;51.264;7.150;2022-10-31T13:38:05;7.60;;;3.33;;
20832;SDS011;56075;51.264;7.150;2022-10-31T13:40:54;15.60;;;3.63;;
20832;SDS011;56075;51.264;7.150;2022-10-31T13:46:25;9.70;;;3.30;;
20832;SDS011;56075;51.264;7.150;2022-10-31T13:49:03;10.80;;;3.28;;
20832;SDS011;56075;51.264;7.150;2022-10-31T13:51:52;12.18;;;3.95;;
20832;SDS011;56075;51.264;7.150;2022-10-31T13:54:30;9.65;;;3.47;;
20832;SDS011;56075;51.264;7.150;2022-10-31T13:57:07;11.70;;;3.30;;
20832;SDS011;56075;51.264;7.150;2022-10-31T13:59:50;10.82;;;3.10;;
20832;SDS011;56075;51.264;7.150;2022-10-31T14:02:31;11.93;;;3.40;;
20832;SDS011;56075;51.264;7.150;2022-10-31T14:05:21;14.68;;;3.67;;
20832;SDS011;56075;51.264;7.150;2022-10-31T14:07:55;11.00;;;3.42;;
20832;SDS011;56075;51.264;7.150;2022-10-31T14:10:33;9.18;;;3.40;;
20832;SDS011;56075;51.264;7.150;2022-10-31T14:13:14;5.72;;;2.95;;
20832;SDS011;56075;51.264;7.150;2022-10-31T14:18:39;9.75;;;3.17;;
20832;SDS011;56075;51.264;7.150;2022-10-31T14:23:56;9.95;;;3.33;;
20832;SDS011;56075;51.264;7.150;2022-10-31T14:32:29;14.55;;;4.20;;
20832;SDS011;56075;51.264;7.150;2022-10-31T14:34:52;13.13;;;4.70;;
20832;SDS011;56075;51.264;7.150;2022-10-31T14:40:41;17.63;;;4.95;;
20832;SDS011;56075;51.264;7.150;2022-10-31T14:46:33;10.48;;;3.75;;
20832;SDS011;56075;51.264;7.150;2022-10-31T14:52:35;9.52;;;3.75;;
20832;SDS011;56075;51.264;7.150;2022-10-31T14:55:10;15.05;;;3.20;;
20832;SDS011;56075;51.264;7.150;2022-10-31T14:57:46;11.00;;;3.85;;
20832;SDS011;56075;51.264;7.150;2022-10-31T15:00:23;13.18;;;3.80;;
20832;SDS011;56075;51.264;7.150;2022-10-31T15:05:31;11.45;;;3.67;;
20832;SDS011;56075;51.264;7.150;2022-10-31T15:08:12;11.15;;;3.13;;
20832;SDS011;56075;51.264;7.150;2022-10-31T15:10:45;12.90;;;3.70;;
20832;SDS011;56075;51.264;7.150;2022-10-31T15:13:20;17.58;;;3.30;;
20832;SDS011;56075;51.264;7.150;2022-10-31T15:15:52;13.60;;;3.03;;
20832;SDS011;56075;51.264;7.150;2022-10-31T15:18:26;9.75;;;3.00;;
20832;SDS011;56075;51.264;7.150;2022-10-31T15:20:58;11.07;;;3.15;;
20832;SDS011;56075;51.264;7.150;2022-10-31T15:23:30;11.52;;;3.13;;
20832;SDS011;56075;51.264;7.150;2022-10-31T15:26:05;10.57;;;3.60;;
20832;SDS011;56075;51.264;7.150;2022-10-31T15:28:36;15.35;;;3.70;;
20832;SDS011;56075;51.264;7.150;2022-10-31T15:31:12;9.88;;;3.15;;
20832;SDS011;56075;51.264;7.150;2022-10-31T15:33:47;10.52;;;3.38;;
20832;SDS011;56075;51.264;7.150;2022-10-31T15:36:20;16.00;;;3.63;;
20832;SDS011;56075;51.264;7.150;2022-10-31T15:38:54;9.77;;;3.08;;
20832;SDS011;56075;51.264;7.150;2022-10-31T15:41:32;17.45;;;2.70;;
20832;SDS011;56075;51.264;7.150;2022-10-31T15:44:20;12.30;;;2.90;;
20832;SDS011;56075;51.264;7.150;2022-10-31T15:47:04;10.00;;;2.97;;
20832;SDS011;56075;51.264;7.150;2022-10-31T15:49:38;12.48;;;2.85;;
20832;SDS011;56075;51.264;7.150;2022-10-31T15:52:23;7.40;;;2.88;;
20832;SDS011;56075;51.264;7.150;2022-10-31T15:55:14;11.60;;;3.10;;
20832;SDS011;56075;51.264;7.150;2022-10-31T15:58:09;10.88;;;2.80;;
20832;SDS011;56075;51.264;7.150;2022-10-31T16:00:43;10.68;;;3.00;;
20832;SDS011;56075;51.264;7.150;2022-10-31T16:05:46;12.02;;;2.75;;
20832;SDS011;56075;51.264;7.150;2022-10-31T16:10:57;11.32;;;2.67;;
20832;SDS011;56075;51.264;7.150;2022-10-31T16:13:38;10.60;;;2.65;;
20832;SDS011;56075;51.264;7.150;2022-10-31T16:16:31;10.50;;;2.70;;
20832;SDS011;56075;51.264;7.150;2022-10-31T16:19:05;10.32;;;2.70;;
20832;SDS011;56075;51.264;7.150;2022-10-31T16:21:43;8.52;;;2.80;;
20832;SDS011;56075;51.264;7.150;2022-10-31T16:24:19;11.50;;;3.08;;
20832;SDS011;56075;51.264;7.150;2022-10-31T16:27:05;11.90;;;2.90;;
20832;SDS011;56075;51.264;7.150;2022-10-31T16:29:46;9.70;;;3.22;;
20832;SDS011;56075;51.264;7.150;2022-10-31T16:32:24;10.23;;;3.03;;
20832;SDS011;56075;51.264;7.150;2022-10-31T16:34:59;8.77;;;2.70;;
20832;SDS011;56075;51.264;7.150;2022-10-31T16:37:39;10.82;;;2.75;;
20832;SDS011;56075;51.264;7.150;2022-10-31T16:40:12;7.05;;;2.75;;
20832;SDS011;56075;51.264;7.150;2022-10-31T16:42:44;11.02;;;2.60;;
20832;SDS011;56075;51.264;7.150;2022-10-31T16:45:20;8.52;;;2.83;;
20832;SDS011;56075;51.264;7.150;2022-10-31T16:47:52;13.10;;;3.05;;
20832;SDS011;56075;51.264;7.150;2022-10-31T16:50:25;8.48;;;2.63;;
20832;SDS011;56075;51.264;7.150;2022-10-31T16:52:57;7.05;;;2.25;;
20832;SDS011;56075;51.264;7.150;2022-10-31T16:55:28;10.73;;;2.65;;
20832;SDS011;56075;51.264;7.150;2022-10-31T16:57:59;12.70;;;2.95;;
20832;SDS011;56075;51.264;7.150;2022-10-31T17:00:31;12.95;;;4.07;;
20832;SDS011;56075;51.264;7.150;2022-10-31T17:03:02;7.97;;;3.10;;
20832;SDS011;56075;51.264;7.150;2022-10-31T17:05:35;6.10;;;2.35;;
20832;SDS011;56075;51.264;7.150;2022-10-31T17:08:07;10.48;;;2.67;;
20832;SDS011;56075;51.264;7.150;2022-10-31T17:10:39;10.77;;;3.05;;
20832;SDS011;56075;51.264;7.150;2022-10-31T17:13:17;7.25;;;2.25;;
20832;SDS011;56075;51.264;7.150;2022-10-31T17:15:52;14.30;;;2.97;;
20832;SDS011;56075;51.264;7.150;2022-10-31T17:18:25;8.90;;;2.50;;
20832;SDS011;56075;51.264;7.150;2022-10-31T17:20:59;8.35;;;2.80;;
20832;SDS011;56075;51.264;7.150;2022-10-31T17:23:32;6.15;;;2.38;;
20832;SDS011;56075;51.264;7.150;2022-10-31T17:26:03;16.73;;;2.85;;
20832;SDS011;56075;51.264;7.150;2022-10-31T17:28:36;10.70;;;2.90;;
20832;SDS011;56075;51.264;7.150;2022-10-31T17:31:10;9.30;;;2.80;;
20832;SDS011;56075;51.264;7.150;2022-10-31T17:34:08;7.75;;;2.30;;
20832;SDS011;56075;51.264;7.150;2022-10-31T17:36:39;12.25;;;2.88;;
20832;SDS011;56075;51.264;7.150;2022-10-31T17:39:11;14.13;;;3.25;;
20832;SDS011;56075;51.264;7.150;2022-10-31T17:41:42;10.43;;;3.00;;
20832;SDS011;56075;51.264;7.150;2022-10-31T17:44:13;15.70;;;2.88;;
20832;SDS011;56075;51.264;7.150;2022-10-31T17:46:44;10.60;;;3.10;;
20832;SDS011;56075;51.264;7.150;2022-10-31T17:49:15;11.52;;;3.30;;